createdAt,value
2023-03-29T00:02:30.203Z,5.51
2023-03-29T00:05:01.998Z,5.52
2023-03-29T00:07:30.116Z,5.53
2023-03-29T00:09:56.752Z,5.57
2023-03-29T00:12:23.310Z,5.57
2023-03-29T00:14:49.868Z,5.55
2023-03-29T00:17:16.445Z,5.58
2023-03-29T00:19:46.804Z,5.58
2023-03-29T00:22:19.863Z,5.57
2023-03-29T00:24:47.799Z,5.56
2023-03-29T00:27:16.986Z,5.60
2023-03-29T00:29:43.506Z,5.59
2023-03-29T00:32:10.241Z,5.56
2023-03-29T00:34:36.695Z,5.56
2023-03-29T00:37:04.087Z,5.61
2023-03-29T00:39:31.094Z,5.58
2023-03-29T00:41:57.610Z,5.61
2023-03-29T00:44:55.305Z,5.61
2023-03-29T00:47:35.062Z,5.63
2023-03-29T00:50:08.413Z,5.61
2023-03-29T00:52:35.787Z,5.59
2023-03-29T00:55:10.117Z,5.61
2023-03-29T00:57:39.355Z,5.62
2023-03-29T01:00:10.083Z,5.64
2023-03-29T01:02:39.997Z,5.61
2023-03-29T01:05:13.050Z,5.65
2023-03-29T01:08:18.224Z,5.69
2023-03-29T01:10:51.377Z,5.73
2023-03-29T01:13:27.913Z,5.73
2023-03-29T01:15:57.475Z,5.76
2023-03-29T01:18:24.443Z,5.82
2023-03-29T01:21:23.522Z,5.84
2023-03-29T01:24:07.052Z,5.86
2023-03-29T01:26:48.645Z,5.90
2023-03-29T01:29:33.281Z,5.93
2023-03-29T01:32:08.913Z,5.97
2023-03-29T01:34:38.819Z,5.99
2023-03-29T01:37:09.417Z,6.06
2023-03-29T01:39:36.059Z,6.17
2023-03-29T01:42:16.865Z,6.19
2023-03-29T01:44:47.565Z,6.21
2023-03-29T01:47:30.034Z,6.22
2023-03-29T01:50:36.243Z,6.27
2023-03-29T01:53:18.994Z,6.28
2023-03-29T01:56:08.738Z,6.30
2023-03-29T01:58:40.931Z,6.31
2023-03-29T02:01:10.455Z,6.30
2023-03-29T02:03:42.737Z,6.32
2023-03-29T02:06:15.508Z,6.30
2023-03-29T02:08:43.548Z,6.34
2023-03-29T02:11:10.279Z,6.32
2023-03-29T02:13:37.079Z,6.31
2023-03-29T02:16:09.671Z,6.31
2023-03-29T02:18:36.303Z,6.36
2023-03-29T02:21:03.068Z,6.34
2023-03-29T02:23:45.361Z,6.37
2023-03-29T02:26:14.450Z,6.34
2023-03-29T02:28:42.012Z,6.31
2023-03-29T02:31:37.313Z,6.35
2023-03-29T02:34:22.035Z,6.37
2023-03-29T02:37:01.837Z,6.32
2023-03-29T02:39:32.176Z,6.36
2023-03-29T02:41:59.484Z,6.34
2023-03-29T02:44:32.035Z,6.36
2023-03-29T02:47:24.971Z,6.36
2023-03-29T02:49:51.539Z,6.38
2023-03-29T02:52:25.803Z,6.38
2023-03-29T02:54:55.628Z,6.37
2023-03-29T02:57:26.654Z,6.39
2023-03-29T02:59:55.555Z,6.39
2023-03-29T03:02:22.010Z,6.40
2023-03-29T03:04:48.485Z,6.41
2023-03-29T03:07:15.018Z,6.40
2023-03-29T03:09:41.798Z,6.39
2023-03-29T03:12:09.118Z,6.43
2023-03-29T03:14:35.575Z,6.41
2023-03-29T03:17:04.566Z,6.43
2023-03-29T03:19:31.634Z,6.39
2023-03-29T03:21:58.326Z,6.39
2023-03-29T03:24:24.857Z,6.39
2023-03-29T03:26:51.369Z,6.38
2023-03-29T03:29:17.847Z,6.39
2023-03-29T03:31:44.771Z,6.38
2023-03-29T03:34:11.517Z,6.33
2023-03-29T03:36:37.990Z,6.32
2023-03-29T03:39:07.184Z,6.33
2023-03-29T03:41:34.612Z,6.33
2023-03-29T03:44:01.746Z,6.38
2023-03-29T03:46:29.659Z,6.33
2023-03-29T03:48:56.518Z,6.33
2023-03-29T03:51:23.326Z,6.34
2023-03-29T03:53:49.958Z,6.39
2023-03-29T03:56:16.545Z,6.38
2023-03-29T03:58:43.189Z,6.34
2023-03-29T04:01:09.990Z,6.36
2023-03-29T04:03:37.658Z,6.40
2023-03-29T04:06:05.101Z,6.41
2023-03-29T04:08:32.013Z,6.38
2023-03-29T04:10:59.622Z,6.37
2023-03-29T04:13:27.187Z,6.41
2023-03-29T04:15:57.584Z,6.41
2023-03-29T04:18:25.493Z,6.40
2023-03-29T04:20:52.162Z,6.42
2023-03-29T04:23:18.728Z,6.41
2023-03-29T04:25:45.238Z,6.42
2023-03-29T04:28:12.676Z,6.38
2023-03-29T04:30:39.997Z,6.40
2023-03-29T04:33:06.750Z,6.42
2023-03-29T04:35:33.499Z,6.38
2023-03-29T04:38:00.208Z,6.40
2023-03-29T04:40:26.728Z,6.45
2023-03-29T04:42:54.428Z,6.40
2023-03-29T04:45:21.380Z,6.41
2023-03-29T04:47:48.044Z,6.45
2023-03-29T04:50:14.557Z,6.41
2023-03-29T04:52:41.367Z,6.42
2023-03-29T04:55:08.694Z,6.40
2023-03-29T04:57:35.289Z,6.42
2023-03-29T05:00:01.834Z,6.46
2023-03-29T05:02:30.965Z,6.44
2023-03-29T05:04:57.496Z,6.47
2023-03-29T05:07:24.605Z,6.48
2023-03-29T05:09:51.247Z,6.46
2023-03-29T05:12:17.734Z,6.48
2023-03-29T05:14:44.185Z,6.46
2023-03-29T05:17:10.662Z,6.48
2023-03-29T05:19:38.264Z,6.53
2023-03-29T05:22:04.884Z,6.51
2023-03-29T05:24:31.719Z,6.53
2023-03-29T05:26:58.256Z,6.51
2023-03-29T05:29:24.860Z,6.52
2023-03-29T05:31:52.606Z,6.53
2023-03-29T05:34:20.003Z,6.57
2023-03-29T05:36:46.520Z,6.57
2023-03-29T05:39:13.018Z,6.58
2023-03-29T05:41:39.826Z,6.58
2023-03-29T05:44:06.583Z,6.60
2023-03-29T05:46:33.032Z,6.62
2023-03-29T05:48:59.494Z,6.61
2023-03-29T05:51:25.928Z,6.66
2023-03-29T05:53:52.526Z,6.67
2023-03-29T05:56:19.568Z,6.66
2023-03-29T05:58:49.468Z,6.71
2023-03-29T06:01:17.792Z,6.71
2023-03-29T06:03:46.131Z,6.75
2023-03-29T06:06:16.179Z,6.79
2023-03-29T06:08:43.333Z,6.86
2023-03-29T06:11:11.572Z,6.89
2023-03-29T06:13:39.005Z,6.89
2023-03-29T06:16:10.558Z,6.92
2023-03-29T06:18:38.181Z,6.92
2023-03-29T06:21:05.104Z,6.97
2023-03-29T06:23:32.042Z,6.98
2023-03-29T06:26:00.069Z,7.03
2023-03-29T06:28:26.798Z,7.08
2023-03-29T06:30:56.639Z,7.10
2023-03-29T06:33:24.192Z,7.18
2023-03-29T06:35:50.715Z,7.23
2023-03-29T06:38:17.357Z,7.31
2023-03-29T06:40:44.691Z,7.37
2023-03-29T06:43:11.241Z,7.44
2023-03-29T06:45:38.806Z,7.47
2023-03-29T06:48:07.699Z,7.56
2023-03-29T06:50:35.110Z,7.64
2023-03-29T06:53:02.233Z,7.64
2023-03-29T06:55:28.808Z,7.74
2023-03-29T06:57:55.664Z,7.80
2023-03-29T07:00:28.440Z,7.84
2023-03-29T07:02:56.579Z,7.87
2023-03-29T07:05:24.045Z,7.88
2023-03-29T07:07:57.115Z,7.93
2023-03-29T07:10:32.834Z,7.94
2023-03-29T07:13:03.522Z,7.96
2023-03-29T07:15:30.043Z,8.06
2023-03-29T07:17:57.527Z,8.07
2023-03-29T07:20:24.960Z,8.14
2023-03-29T07:22:51.781Z,8.26
2023-03-29T07:25:18.854Z,8.28
2023-03-29T07:27:46.420Z,8.30
2023-03-29T07:30:18.573Z,8.35
2023-03-29T07:32:46.492Z,8.39
2023-03-29T07:35:14.820Z,8.40
2023-03-29T07:37:42.865Z,8.45
2023-03-29T07:40:24.150Z,8.52
2023-03-29T07:42:54.120Z,8.59
2023-03-29T07:45:26.840Z,8.62
2023-03-29T07:47:57.561Z,8.74
2023-03-29T07:50:25.753Z,8.81
2023-03-29T07:52:52.666Z,8.90
2023-03-29T07:55:19.609Z,8.95
2023-03-29T07:57:46.109Z,8.96
2023-03-29T08:00:16.994Z,9.02
2023-03-29T08:02:45.491Z,9.06
2023-03-29T08:05:13.827Z,9.20
2023-03-29T08:07:41.841Z,9.23
2023-03-29T08:10:11.210Z,9.25
2023-03-29T08:12:37.804Z,9.17
2023-03-29T08:15:05.469Z,9.24
2023-03-29T08:17:32.951Z,9.30
2023-03-29T08:19:59.570Z,9.30
2023-03-29T08:22:26.195Z,9.40
2023-03-29T08:24:52.974Z,9.37
2023-03-29T08:27:20.130Z,9.48
2023-03-29T08:29:47.146Z,9.52
2023-03-29T08:32:14.183Z,9.63
2023-03-29T08:34:41.016Z,9.61
2023-03-29T08:37:08.554Z,9.71
2023-03-29T08:39:35.189Z,9.81
2023-03-29T08:42:33.907Z,9.88
2023-03-29T08:45:09.445Z,9.89
2023-03-29T08:47:50.005Z,10.10
2023-03-29T08:50:18.245Z,10.07
2023-03-29T08:52:51.574Z,10.06
2023-03-29T08:55:31.956Z,10.11
2023-03-29T08:58:01.513Z,10.14
2023-03-29T09:00:37.647Z,10.13
2023-03-29T09:03:14.891Z,10.16
2023-03-29T09:05:46.119Z,10.19
2023-03-29T09:08:16.585Z,10.20
2023-03-29T09:10:48.408Z,10.17
2023-03-29T09:13:28.266Z,10.15
2023-03-29T09:16:06.021Z,10.14
2023-03-29T09:19:10.103Z,10.24
2023-03-29T09:22:19.860Z,10.39
2023-03-29T09:25:14.128Z,10.49
2023-03-29T09:28:04.550Z,10.55
2023-03-29T09:30:36.952Z,10.58
2023-03-29T09:33:09.434Z,10.68
2023-03-29T09:35:41.167Z,10.79
2023-03-29T09:38:12.536Z,10.88
2023-03-29T09:40:47.120Z,10.93
2023-03-29T09:43:18.435Z,10.88
2023-03-29T09:45:50.106Z,10.76
2023-03-29T09:48:19.627Z,10.85
2023-03-29T09:50:51.150Z,10.96
2023-03-29T09:53:19.336Z,11.03
2023-03-29T09:55:50.337Z,11.07
2023-03-29T09:58:20.407Z,10.92
2023-03-29T10:00:48.601Z,10.76
2023-03-29T10:03:24.452Z,10.70
2023-03-29T10:05:54.513Z,10.77
2023-03-29T10:08:27.818Z,10.88
2023-03-29T10:10:57.469Z,10.96
2023-03-29T10:13:30.527Z,11.10
2023-03-29T10:16:05.946Z,11.07
2023-03-29T10:18:34.145Z,11.19
2023-03-29T10:21:03.926Z,11.36
2023-03-29T10:23:36.849Z,11.57
2023-03-29T10:26:07.797Z,11.62
2023-03-29T10:28:36.550Z,11.71
2023-03-29T10:31:06.086Z,11.66
2023-03-29T10:33:34.979Z,11.72
2023-03-29T10:36:06.853Z,11.70
2023-03-29T10:38:37.036Z,11.59
2023-03-29T10:41:10.757Z,11.58
2023-03-29T10:43:42.844Z,11.55
2023-03-29T10:46:13.438Z,11.65
2023-03-29T10:48:46.345Z,11.65
2023-03-29T10:51:14.883Z,11.69
2023-03-29T10:53:42.290Z,11.71
2023-03-29T10:56:08.727Z,11.76
2023-03-29T10:59:04.167Z,11.76
2023-03-29T11:01:44.850Z,11.71
2023-03-29T11:04:36.394Z,11.91
2023-03-29T11:07:31.436Z,11.91
2023-03-29T11:10:24.783Z,11.64
2023-03-29T11:13:33.024Z,11.53
2023-03-29T11:16:36.253Z,11.64
2023-03-29T11:19:23.423Z,11.52
2023-03-29T11:22:22.938Z,11.67
2023-03-29T11:24:55.821Z,11.65
2023-03-29T11:27:44.870Z,11.74
2023-03-29T11:30:31.724Z,11.82
2023-03-29T11:33:01.462Z,11.73
2023-03-29T11:35:44.900Z,11.78
2023-03-29T11:38:25.329Z,12.01
2023-03-29T11:40:55.281Z,12.07
2023-03-29T11:43:27.929Z,11.99
2023-03-29T11:46:09.285Z,12.22
2023-03-29T11:48:42.055Z,12.50
2023-03-29T11:51:15.502Z,12.60
2023-03-29T11:53:53.378Z,12.51
2023-03-29T11:56:29.180Z,12.47
2023-03-29T11:59:03.024Z,12.35
2023-03-29T12:01:42.297Z,12.33
2023-03-29T12:04:22.377Z,12.30
2023-03-29T12:06:57.743Z,12.15
2023-03-29T12:09:38.573Z,12.03
2023-03-29T12:12:16.631Z,12.12
2023-03-29T12:14:59.086Z,12.07
2023-03-29T12:17:34.184Z,11.91
2023-03-29T12:20:11.392Z,11.92
2023-03-29T12:22:38.304Z,12.04
2023-03-29T12:25:06.730Z,12.03
2023-03-29T12:27:52.395Z,11.91
2023-03-29T12:30:47.349Z,11.82
2023-03-29T12:33:43.165Z,11.79
2023-03-29T12:36:24.938Z,11.66
2023-03-29T12:38:52.430Z,11.63
2023-03-29T12:41:21.948Z,11.65
2023-03-29T12:43:48.816Z,11.66
2023-03-29T12:46:19.807Z,11.60
2023-03-29T12:48:57.211Z,11.60
2023-03-29T12:51:32.217Z,11.56
2023-03-29T12:54:26.808Z,11.55
2023-03-29T12:57:18.131Z,11.57
2023-03-29T12:59:47.880Z,11.64
2023-03-29T13:02:14.357Z,11.73
2023-03-29T13:04:44.012Z,11.88
2023-03-29T13:07:22.566Z,12.00
2023-03-29T13:09:57.827Z,12.07
2023-03-29T13:12:35.082Z,12.13
2023-03-29T13:15:26.767Z,12.18
2023-03-29T13:18:00.216Z,12.18
2023-03-29T13:20:46.445Z,12.32
2023-03-29T13:23:26.405Z,12.37
2023-03-29T13:26:32.723Z,12.45
2023-03-29T13:29:33.683Z,12.64
2023-03-29T13:32:13.324Z,12.68
2023-03-29T13:34:56.337Z,12.67
2023-03-29T13:37:54.466Z,12.68
2023-03-29T13:40:29.738Z,12.74
2023-03-29T13:43:20.870Z,12.75
2023-03-29T13:45:56.502Z,12.83
2023-03-29T13:48:32.649Z,12.78
2023-03-29T13:51:08.246Z,12.78
2023-03-29T13:53:40.221Z,12.73
2023-03-29T13:56:14.343Z,12.80
2023-03-29T13:59:15.844Z,12.87
2023-03-29T14:01:50.491Z,12.95
2023-03-29T14:04:24.785Z,12.95
2023-03-29T14:06:54.463Z,13.05
2023-03-29T14:09:26.066Z,13.27
2023-03-29T14:11:53.185Z,13.44
2023-03-29T14:14:24.690Z,13.58
2023-03-29T14:16:51.430Z,13.68
2023-03-29T14:19:38.041Z,13.54
2023-03-29T14:22:13.133Z,13.44
2023-03-29T14:24:48.038Z,13.57
2023-03-29T14:27:15.815Z,13.77
2023-03-29T14:29:45.770Z,14.02
2023-03-29T14:32:27.678Z,14.18
2023-03-29T14:34:54.234Z,14.27
2023-03-29T14:37:26.985Z,14.42
2023-03-29T14:39:54.645Z,14.46
2023-03-29T14:42:26.957Z,14.55
2023-03-29T14:45:01.946Z,14.56
2023-03-29T14:47:31.186Z,14.58
2023-03-29T14:50:01.765Z,14.55
2023-03-29T14:52:30.354Z,14.65
2023-03-29T14:54:59.636Z,14.78
2023-03-29T14:57:32.526Z,14.85
2023-03-29T15:00:01.220Z,14.81
2023-03-29T15:02:33.250Z,14.76
2023-03-29T15:05:07.608Z,14.72
2023-03-29T15:07:37.087Z,14.78
2023-03-29T15:10:06.346Z,14.82
2023-03-29T15:12:33.857Z,14.85
2023-03-29T15:15:01.458Z,14.83
2023-03-29T15:17:47.650Z,14.81
2023-03-29T15:20:51.329Z,14.61
2023-03-29T15:23:22.586Z,14.71
2023-03-29T15:25:56.662Z,14.68
2023-03-29T15:28:33.935Z,14.69
2023-03-29T15:33:38.427Z,14.69
2023-03-29T15:36:07.525Z,14.62
2023-03-29T15:38:43.227Z,14.60
2023-03-29T15:41:12.352Z,14.46
2023-03-29T15:43:38.817Z,14.44
2023-03-29T15:46:05.527Z,14.41
2023-03-29T15:48:33.666Z,14.35
2023-03-29T15:51:03.958Z,14.31
2023-03-29T15:53:32.746Z,14.26
2023-03-29T15:56:01.645Z,14.28
2023-03-29T15:58:31.580Z,14.19
2023-03-29T16:01:19.073Z,14.23
2023-03-29T16:03:47.875Z,14.23
2023-03-29T16:06:16.031Z,14.25
2023-03-29T16:08:42.466Z,14.27
2023-03-29T16:11:09.160Z,14.24
2023-03-29T16:13:35.923Z,14.26
2023-03-29T16:16:02.771Z,14.23
2023-03-29T16:18:29.619Z,14.25
2023-03-29T16:20:56.880Z,14.21
2023-03-29T16:23:23.370Z,14.20
2023-03-29T16:25:49.962Z,14.21
2023-03-29T16:28:16.673Z,14.20
2023-03-29T16:30:43.578Z,14.20
2023-03-29T16:33:11.264Z,14.16
2023-03-29T16:35:42.386Z,14.15
2023-03-29T16:38:09.299Z,14.12
2023-03-29T16:40:36.643Z,14.09
2023-03-29T16:43:03.677Z,14.08
2023-03-29T16:45:30.597Z,14.06
2023-03-29T16:47:57.451Z,14.06
2023-03-29T16:50:24.377Z,14.00
2023-03-29T16:52:53.742Z,13.95
2023-03-29T16:55:20.304Z,13.88
2023-03-29T16:57:47.873Z,13.86
2023-03-29T17:00:16.922Z,13.89
2023-03-29T17:02:44.050Z,13.83
2023-03-29T17:05:12.035Z,13.84
2023-03-29T17:07:42.280Z,13.83
2023-03-29T17:10:10.722Z,13.77
2023-03-29T17:12:37.204Z,13.79
2023-03-29T17:15:07.606Z,13.75
2023-03-29T17:17:34.786Z,13.73
2023-03-29T17:20:01.365Z,13.72
2023-03-29T17:22:27.853Z,13.72
2023-03-29T17:24:54.370Z,13.73
2023-03-29T17:27:21.209Z,13.71
2023-03-29T17:29:47.948Z,13.67
2023-03-29T17:32:14.411Z,13.68
2023-03-29T17:34:41.672Z,13.65
2023-03-29T17:37:09.646Z,13.61
2023-03-29T17:39:37.619Z,13.58
2023-03-29T17:42:05.286Z,13.56
2023-03-29T17:44:33.271Z,13.54
2023-03-29T17:47:00.619Z,13.52
2023-03-29T17:49:27.207Z,13.52
2023-03-29T17:51:53.674Z,13.48
2023-03-29T17:54:20.205Z,13.46
2023-03-29T17:56:46.892Z,13.45
2023-03-29T17:59:13.381Z,13.36
2023-03-29T18:01:40.136Z,13.29
2023-03-29T18:04:06.795Z,13.21
2023-03-29T18:06:33.357Z,13.18
2023-03-29T18:09:01.534Z,13.14
2023-03-29T18:11:28.465Z,13.05
2023-03-29T18:13:59.409Z,13.02
2023-03-29T18:16:26.215Z,12.98
2023-03-29T18:18:52.726Z,12.92
2023-03-29T18:21:19.996Z,12.78
2023-03-29T18:23:47.939Z,12.75
2023-03-29T18:26:17.577Z,12.70
2023-03-29T18:28:48.842Z,12.65
2023-03-29T18:31:15.973Z,12.59
2023-03-29T18:33:42.738Z,12.53
2023-03-29T18:36:12.686Z,12.47
2023-03-29T18:38:43.019Z,12.45
2023-03-29T18:41:12.097Z,12.39
2023-03-29T18:43:39.788Z,12.37
2023-03-29T18:46:07.721Z,12.36
2023-03-29T18:48:43.894Z,12.33
2023-03-29T18:51:12.516Z,12.28
2023-03-29T18:53:41.545Z,12.26
2023-03-29T18:56:08.086Z,12.25
2023-03-29T18:58:35.271Z,12.24
2023-03-29T19:01:03.659Z,12.20
2023-03-29T19:03:34.735Z,12.09
2023-03-29T19:06:02.058Z,12.05
2023-03-29T19:08:28.799Z,12.05
2023-03-29T19:11:01.663Z,12.03
2023-03-29T19:13:28.186Z,11.98
2023-03-29T19:15:54.964Z,11.94
2023-03-29T19:18:21.519Z,11.88
2023-03-29T19:20:50.883Z,11.85
2023-03-29T19:23:18.134Z,11.81
2023-03-29T19:25:55.347Z,11.77
2023-03-29T19:28:22.038Z,11.74
2023-03-29T19:30:48.861Z,11.77
2023-03-29T19:33:16.098Z,11.76
2023-03-29T19:35:42.834Z,11.70
2023-03-29T19:38:09.457Z,11.69
2023-03-29T19:40:36.572Z,11.66
2023-03-29T19:43:03.476Z,11.59
2023-03-29T19:45:30.147Z,11.61
2023-03-29T19:47:58.305Z,11.59
2023-03-29T19:50:26.307Z,11.57
2023-03-29T19:52:58.549Z,11.58
2023-03-29T19:55:25.945Z,11.60
2023-03-29T19:57:52.509Z,11.60
2023-03-29T20:00:24.337Z,11.64
2023-03-29T20:02:52.355Z,11.62
2023-03-29T20:05:20.159Z,11.63
2023-03-29T20:07:46.748Z,11.65
2023-03-29T20:10:13.442Z,11.64
2023-03-29T20:12:39.923Z,11.66
2023-03-29T20:15:07.427Z,11.64
2023-03-29T20:17:35.583Z,11.66
2023-03-29T20:20:08.243Z,11.63
2023-03-29T20:22:34.744Z,11.66
2023-03-29T20:25:01.294Z,11.66
2023-03-29T20:27:29.380Z,11.66
2023-03-29T20:29:56.011Z,11.68
2023-03-29T20:32:22.997Z,11.74
2023-03-29T20:34:49.684Z,11.72
2023-03-29T20:37:16.168Z,11.74
2023-03-29T20:39:43.046Z,11.79
2023-03-29T20:42:09.595Z,11.79
2023-03-29T20:44:36.621Z,11.84
2023-03-29T20:47:04.891Z,11.85
2023-03-29T20:49:38.312Z,11.91
2023-03-29T20:52:17.573Z,11.95
2023-03-29T20:54:45.345Z,11.99
2023-03-29T20:57:15.787Z,12.01
2023-03-29T20:59:43.768Z,12.10
2023-03-29T21:02:20.793Z,12.10
2023-03-29T21:04:52.106Z,12.12
2023-03-29T21:07:20.309Z,12.16
2023-03-29T21:09:50.418Z,12.16
2023-03-29T21:12:17.478Z,12.15
2023-03-29T21:14:44.716Z,12.13
2023-03-29T21:17:11.475Z,12.12
2023-03-29T21:19:39.432Z,12.12
2023-03-29T21:22:06.664Z,12.11
2023-03-29T21:24:33.678Z,12.10
2023-03-29T21:27:00.525Z,12.08
2023-03-29T21:29:27.089Z,12.07
2023-03-29T21:31:53.840Z,12.05
2023-03-29T21:34:20.648Z,12.04
2023-03-29T21:36:47.232Z,12.03
2023-03-29T21:39:13.841Z,11.99
2023-03-29T21:41:40.309Z,11.98
2023-03-29T21:44:06.784Z,11.96
2023-03-29T21:46:33.298Z,11.97
2023-03-29T21:48:59.803Z,11.91
2023-03-29T21:51:26.997Z,11.90
2023-03-29T21:53:53.498Z,11.90
2023-03-29T21:56:19.952Z,11.87
2023-03-29T21:58:46.469Z,11.86
2023-03-29T22:01:13.000Z,11.87
2023-03-29T22:03:39.546Z,11.84
2023-03-29T22:06:10.600Z,11.81
2023-03-29T22:08:38.921Z,11.82
2023-03-29T22:11:11.038Z,11.76
2023-03-29T22:13:37.830Z,11.75
2023-03-29T22:16:05.222Z,11.73
2023-03-29T22:18:42.965Z,11.75
2023-03-29T22:21:19.892Z,11.72
2023-03-29T22:23:49.863Z,11.76
2023-03-29T22:26:18.797Z,11.75
2023-03-29T22:28:45.444Z,11.76
2023-03-29T22:31:14.872Z,11.75
2023-03-29T22:33:42.486Z,11.72
2023-03-29T22:36:27.353Z,11.73
2023-03-29T22:38:54.559Z,11.77
2023-03-29T22:41:25.985Z,11.78
2023-03-29T22:43:54.179Z,11.77
2023-03-29T22:46:21.368Z,11.79
2023-03-29T22:48:48.222Z,11.83
2023-03-29T22:51:16.167Z,11.87
2023-03-29T22:53:42.694Z,11.88
2023-03-29T22:56:09.631Z,11.95
2023-03-29T22:58:37.123Z,11.99
2023-03-29T23:01:04.182Z,12.02
2023-03-29T23:03:31.137Z,12.05
2023-03-29T23:06:02.264Z,12.07
2023-03-29T23:08:30.860Z,12.07
2023-03-29T23:10:58.227Z,12.10
2023-03-29T23:13:29.255Z,12.17
2023-03-29T23:16:01.554Z,12.22
2023-03-29T23:18:29.496Z,12.29
2023-03-29T23:20:57.715Z,12.32
2023-03-29T23:23:25.713Z,12.39
2023-03-29T23:25:53.546Z,12.40
2023-03-29T23:28:23.548Z,12.43
2023-03-29T23:31:12.142Z,12.51
2023-03-29T23:33:42.759Z,12.52
2023-03-29T23:36:12.278Z,12.57
2023-03-29T23:38:39.824Z,12.60
2023-03-29T23:41:10.351Z,12.62
2023-03-29T23:43:43.688Z,12.68
2023-03-29T23:46:12.433Z,12.73
2023-03-29T23:48:39.253Z,12.70
2023-03-29T23:51:07.979Z,12.67
2023-03-29T23:53:34.464Z,12.69
2023-03-29T23:56:03.338Z,12.75
2023-03-29T23:58:35.057Z,12.80
